sensor_id;sensor_type;location;lat;lon;timestamp;temperature;humidity
49821;DHT22;36893;52.520;13.450;2022-11-15T00:05:15;21.70;81.00
49821;DHT22;36893;52.520;13.450;2022-11-15T00:15:16;21.70;81.00
49821;DHT22;36893;52.520;13.450;2022-11-15T00:25:16;21.70;80.90
49821;DHT22;36893;52.520;13.450;2022-11-15T00:35:17;21.70;80.80
49821;DHT22;36893;52.520;13.450;2022-11-15T00:45:18;21.70;80.70
49821;DHT22;36893;52.520;13.450;2022-11-15T00:55:19;21.70;80.70
49821;DHT22;36893;52.520;13.450;2022-11-15T01:05:20;21.60;80.60
49821;DHT22;36893;52.520;13.450;2022-11-15T01:15:21;21.60;80.50
49821;DHT22;36893;52.520;13.450;2022-11-15T01:25:21;21.60;80.50
49821;DHT22;36893;52.520;13.450;2022-11-15T01:35:22;21.60;80.40
49821;DHT22;36893;52.520;13.450;2022-11-15T01:45:23;21.60;80.30
49821;DHT22;36893;52.520;13.450;2022-11-15T01:55:26;21.60;80.20
49821;DHT22;36893;52.520;13.450;2022-11-15T02:05:30;21.60;80.20
49821;DHT22;36893;52.520;13.450;2022-11-15T02:15:42;21.60;80.10
49821;DHT22;36893;52.520;13.450;2022-11-15T02:26:07;21.60;80.10
49821;DHT22;36893;52.520;13.450;2022-11-15T02:46:32;21.50;79.90
49821;DHT22;36893;52.520;13.450;2022-11-15T02:56:58;21.50;79.80
49821;DHT22;36893;52.520;13.450;2022-11-15T03:07:18;21.40;79.80
49821;DHT22;36893;52.520;13.450;2022-11-15T03:17:29;21.50;79.80
49821;DHT22;36893;52.520;13.450;2022-11-15T03:27:35;21.50;79.70
49821;DHT22;36893;52.520;13.450;2022-11-15T03:37:53;21.50;79.70
49821;DHT22;36893;52.520;13.450;2022-11-15T03:48:18;21.50;79.60
49821;DHT22;36893;52.520;13.450;2022-11-15T03:58:21;21.50;79.60
49821;DHT22;36893;52.520;13.450;2022-11-15T04:08:22;21.40;79.40
49821;DHT22;36893;52.520;13.450;2022-11-15T04:18:22;21.40;79.30
49821;DHT22;36893;52.520;13.450;2022-11-15T04:28:24;21.40;79.30
49821;DHT22;36893;52.520;13.450;2022-11-15T04:38:25;21.40;79.30
49821;DHT22;36893;52.520;13.450;2022-11-15T04:48:25;21.40;79.20
49821;DHT22;36893;52.520;13.450;2022-11-15T04:58:26;21.40;79.20
49821;DHT22;36893;52.520;13.450;2022-11-15T05:08:27;21.40;79.00
49821;DHT22;36893;52.520;13.450;2022-11-15T05:18:27;21.40;79.00
49821;DHT22;36893;52.520;13.450;2022-11-15T05:28:28;21.40;79.00
49821;DHT22;36893;52.520;13.450;2022-11-15T05:38:29;21.40;78.90
49821;DHT22;36893;52.520;13.450;2022-11-15T05:48:31;21.40;78.90
49821;DHT22;36893;52.520;13.450;2022-11-15T05:58:32;21.40;78.90
49821;DHT22;36893;52.520;13.450;2022-11-15T06:08:33;21.30;78.70
49821;DHT22;36893;52.520;13.450;2022-11-15T06:18:34;21.30;78.70
49821;DHT22;36893;52.520;13.450;2022-11-15T06:28:35;21.30;78.70
49821;DHT22;36893;52.520;13.450;2022-11-15T06:38:36;21.30;78.80
49821;DHT22;36893;52.520;13.450;2022-11-15T06:48:37;21.30;78.80
49821;DHT22;36893;52.520;13.450;2022-11-15T06:58:37;21.30;79.00
49821;DHT22;36893;52.520;13.450;2022-11-15T07:08:38;21.30;79.10
49821;DHT22;36893;52.520;13.450;2022-11-15T07:18:40;21.30;79.10
49821;DHT22;36893;52.520;13.450;2022-11-15T07:28:40;21.30;79.10
49821;DHT22;36893;52.520;13.450;2022-11-15T07:38:41;21.30;78.80
49821;DHT22;36893;52.520;13.450;2022-11-15T07:48:42;21.30;78.60
49821;DHT22;36893;52.520;13.450;2022-11-15T07:58:45;21.30;78.40
49821;DHT22;36893;52.520;13.450;2022-11-15T08:08:47;21.30;78.30
49821;DHT22;36893;52.520;13.450;2022-11-15T08:18:48;21.30;78.30
49821;DHT22;36893;52.520;13.450;2022-11-15T08:28:48;21.30;78.20
49821;DHT22;36893;52.520;13.450;2022-11-15T08:38:49;21.30;78.20
49821;DHT22;36893;52.520;13.450;2022-11-15T08:48:49;21.40;78.10
49821;DHT22;36893;52.520;13.450;2022-11-15T08:58:50;21.40;78.10
49821;DHT22;36893;52.520;13.450;2022-11-15T09:08:51;21.50;78.10
49821;DHT22;36893;52.520;13.450;2022-11-15T09:18:52;21.50;78.10
49821;DHT22;36893;52.520;13.450;2022-11-15T09:28:54;21.60;78.10
49821;DHT22;36893;52.520;13.450;2022-11-15T09:38:55;21.60;78.20
49821;DHT22;36893;52.520;13.450;2022-11-15T09:48:59;21.70;78.20
49821;DHT22;36893;52.520;13.450;2022-11-15T10:09:47;21.80;78.30
49821;DHT22;36893;52.520;13.450;2022-11-15T10:20:44;21.80;78.40
49821;DHT22;36893;52.520;13.450;2022-11-15T10:30:32;21.80;79.20
49821;DHT22;36893;52.520;13.450;2022-11-15T10:40:40;21.90;78.30
49821;DHT22;36893;52.520;13.450;2022-11-15T10:50:43;21.90;78.60
49821;DHT22;36893;52.520;13.450;2022-11-15T11:00:46;21.90;78.60
49821;DHT22;36893;52.520;13.450;2022-11-15T11:11:01;22.00;78.70
49821;DHT22;36893;52.520;13.450;2022-11-15T11:21:08;22.00;78.70
49821;DHT22;36893;52.520;13.450;2022-11-15T11:31:32;22.00;78.70
49821;DHT22;36893;52.520;13.450;2022-11-15T11:41:43;22.10;78.80
49821;DHT22;36893;52.520;13.450;2022-11-15T12:02:35;22.20;79.20
49821;DHT22;36893;52.520;13.450;2022-11-15T12:33:37;22.30;79.80
49821;DHT22;36893;52.520;13.450;2022-11-15T12:43:41;22.30;79.90
49821;DHT22;36893;52.520;13.450;2022-11-15T12:53:43;22.30;79.80
49821;DHT22;36893;52.520;13.450;2022-11-15T13:24:52;22.40;80.00
49821;DHT22;36893;52.520;13.450;2022-11-15T13:34:53;22.40;80.00
49821;DHT22;36893;52.520;13.450;2022-11-15T13:44:58;22.40;80.00
49821;DHT22;36893;52.520;13.450;2022-11-15T13:55:16;22.40;80.00
49821;DHT22;36893;52.520;13.450;2022-11-15T14:05:23;22.40;80.10
49821;DHT22;36893;52.520;13.450;2022-11-15T14:15:30;22.40;80.10
49821;DHT22;36893;52.520;13.450;2022-11-15T14:25:36;22.40;80.20
49821;DHT22;36893;52.520;13.450;2022-11-15T14:35:38;22.40;80.30
49821;DHT22;36893;52.520;13.450;2022-11-15T14:45:39;22.40;80.30
49821;DHT22;36893;52.520;13.450;2022-11-15T14:55:40;22.40;80.30
49821;DHT22;36893;52.520;13.450;2022-11-15T15:05:42;22.40;80.30
49821;DHT22;36893;52.520;13.450;2022-11-15T15:15:43;22.40;80.30
49821;DHT22;36893;52.520;13.450;2022-11-15T15:25:45;22.30;80.20
49821;DHT22;36893;52.520;13.450;2022-11-15T15:35:46;22.30;80.10
49821;DHT22;36893;52.520;13.450;2022-11-15T15:45:47;22.20;80.00
49821;DHT22;36893;52.520;13.450;2022-11-15T15:55:47;22.20;79.90
49821;DHT22;36893;52.520;13.450;2022-11-15T16:05:49;22.20;79.80
49821;DHT22;36893;52.520;13.450;2022-11-15T16:15:52;22.30;79.70
49821;DHT22;36893;52.520;13.450;2022-11-15T16:25:54;22.20;79.50
49821;DHT22;36893;52.520;13.450;2022-11-15T16:35:55;22.20;79.50
49821;DHT22;36893;52.520;13.450;2022-11-15T16:45:56;22.20;79.60
49821;DHT22;36893;52.520;13.450;2022-11-15T16:55:57;22.20;80.30
49821;DHT22;36893;52.520;13.450;2022-11-15T17:05:58;22.20;79.40
49821;DHT22;36893;52.520;13.450;2022-11-15T17:16:03;22.20;79.40
49821;DHT22;36893;52.520;13.450;2022-11-15T17:26:05;22.20;79.40
49821;DHT22;36893;52.520;13.450;2022-11-15T17:36:09;22.20;79.40
49821;DHT22;36893;52.520;13.450;2022-11-15T17:46:14;22.20;79.40
49821;DHT22;36893;52.520;13.450;2022-11-15T17:56:18;22.10;79.40
49821;DHT22;36893;52.520;13.450;2022-11-15T18:06:21;22.20;79.70
49821;DHT22;36893;52.520;13.450;2022-11-15T18:16:27;22.20;79.80
49821;DHT22;36893;52.520;13.450;2022-11-15T18:26:30;22.20;80.00
49821;DHT22;36893;52.520;13.450;2022-11-15T18:36:31;22.10;80.00
49821;DHT22;36893;52.520;13.450;2022-11-15T18:46:32;22.20;80.40
49821;DHT22;36893;52.520;13.450;2022-11-15T18:56:32;22.20;80.50
49821;DHT22;36893;52.520;13.450;2022-11-15T19:06:37;22.20;80.70
49821;DHT22;36893;52.520;13.450;2022-11-15T19:16:40;22.20;80.80
49821;DHT22;36893;52.520;13.450;2022-11-15T19:26:45;22.20;80.90
49821;DHT22;36893;52.520;13.450;2022-11-15T19:36:46;22.20;80.90
49821;DHT22;36893;52.520;13.450;2022-11-15T19:46:46;22.20;80.90
49821;DHT22;36893;52.520;13.450;2022-11-15T19:56:47;22.20;80.90
49821;DHT22;36893;52.520;13.450;2022-11-15T20:06:47;22.20;80.90
49821;DHT22;36893;52.520;13.450;2022-11-15T20:16:48;22.20;80.90
49821;DHT22;36893;52.520;13.450;2022-11-15T20:26:49;22.20;80.90
49821;DHT22;36893;52.520;13.450;2022-11-15T20:36:49;22.20;80.90
49821;DHT22;36893;52.520;13.450;2022-11-15T20:46:50;22.20;81.00
49821;DHT22;36893;52.520;13.450;2022-11-15T20:56:51;22.20;81.00
49821;DHT22;36893;52.520;13.450;2022-11-15T21:06:51;22.20;81.00
49821;DHT22;36893;52.520;13.450;2022-11-15T21:16:52;22.20;81.00
49821;DHT22;36893;52.520;13.450;2022-11-15T21:26:53;22.20;81.00
49821;DHT22;36893;52.520;13.450;2022-11-15T21:36:54;22.20;81.00
49821;DHT22;36893;52.520;13.450;2022-11-15T21:46:54;22.20;80.90
49821;DHT22;36893;52.520;13.450;2022-11-15T21:56:55;22.20;80.90
49821;DHT22;36893;52.520;13.450;2022-11-15T22:06:56;22.20;80.90
49821;DHT22;36893;52.520;13.450;2022-11-15T22:16:56;22.10;80.80
49821;DHT22;36893;52.520;13.450;2022-11-15T22:26:57;22.10;80.80
49821;DHT22;36893;52.520;13.450;2022-11-15T22:36:57;22.10;80.80
49821;DHT22;36893;52.520;13.450;2022-11-15T22:46:58;22.20;80.80
49821;DHT22;36893;52.520;13.450;2022-11-15T22:56:59;22.20;80.70
49821;DHT22;36893;52.520;13.450;2022-11-15T23:06:59;22.20;80.50
49821;DHT22;36893;52.520;13.450;2022-11-15T23:17:00;22.20;80.40
49821;DHT22;36893;52.520;13.450;2022-11-15T23:27:04;22.20;80.30
49821;DHT22;36893;52.520;13.450;2022-11-15T23:37:08;22.20;80.20
49821;DHT22;36893;52.520;13.450;2022-11-15T23:47:09;22.20;80.10
49821;DHT22;36893;52.520;13.450;2022-11-15T23:57:10;22.20;80.00
